Time;durP1;ratioP1;P1;durP2;ratioP2;P2;SDS_P1;SDS_P2;PMS_P1;PMS_P2;Temp;Humidity;BMP_temperature;BMP_pressure;BME280_temperature;BME280_humidity;BME280_pressure;Samples;Min_cycle;Max_cycle;Signal;HPM_P1;HPM_P2
2023/01/14 00:03:44;;;;;;;5.90;3.10;;;;;;;4.52;100.00;98989.59;270216;1268;22545;-89
2023/01/14 00:09:45;;;;;;;6.50;3.70;;;;;;;4.52;100.00;99001.39;269934;1269;22558;-89
2023/01/14 00:15:55;;;;;;;6.60;3.70;;;;;;;4.52;100.00;99010.44;273132;1269;22327;-89
2023/01/14 00:22:00;;;;;;;7.40;3.20;;;;;;;4.52;100.00;99020.81;273618;1269;23597;-91
2023/01/14 00:28:01;;;;;;;5.60;2.70;;;;;;;4.52;100.00;99026.02;273778;1268;23014;-90
2023/01/14 00:34:03;;;;;;;5.90;2.70;;;;;;;4.53;100.00;99024.34;273815;1268;22351;-89
2023/01/14 00:40:06;;;;;;;4.50;2.60;;;;;;;4.58;100.00;99029.48;273133;1269;22789;-90
2023/01/14 00:46:11;;;;;;;3.90;2.20;;;;;;;4.70;100.00;99037.39;271903;1269;22208;-90
2023/01/14 00:52:13;;;;;;;5.80;2.50;;;;;;;4.78;100.00;99043.40;270798;1262;22890;-89
2023/01/14 00:58:15;;;;;;;5.10;2.40;;;;;;;4.82;100.00;99045.11;270608;1269;23532;-88
2023/01/14 01:04:17;;;;;;;4.10;2.30;;;;;;;4.83;100.00;99036.93;270294;1268;23759;-89
2023/01/14 01:10:19;;;;;;;3.50;2.40;;;;;;;4.75;100.00;99039.77;272196;1269;22207;-89
2023/01/14 01:16:23;;;;;;;4.60;2.10;;;;;;;4.65;100.00;99045.74;270967;1269;22731;-89
2023/01/14 01:22:28;;;;;;;5.60;2.10;;;;;;;4.55;100.00;99038.96;270986;1253;24284;-88
2023/01/14 01:28:31;;;;;;;5.20;2.10;;;;;;;4.47;100.00;99043.09;269687;1269;24230;-89
2023/01/14 01:34:33;;;;;;;3.00;2.00;;;;;;;4.42;100.00;99043.46;269833;1269;23208;-88
2023/01/14 01:40:35;;;;;;;3.00;1.80;;;;;;;4.39;100.00;99042.56;271129;1269;23349;-88
2023/01/14 01:46:38;;;;;;;3.30;2.00;;;;;;;4.32;100.00;99052.85;273449;1257;22409;-89
2023/01/14 01:52:40;;;;;;;3.40;2.10;;;;;;;4.28;100.00;99052.00;271888;1269;22590;-89
2023/01/14 01:58:43;;;;;;;3.40;2.20;;;;;;;4.23;100.00;99053.23;273276;1269;22478;-90
2023/01/14 02:04:45;;;;;;;3.50;2.10;;;;;;;4.17;100.00;99052.46;273416;1269;22349;-89
2023/01/14 02:11:14;;;;;;;3.90;2.20;;;;;;;4.09;100.00;99051.39;273734;1269;22327;-88
2023/01/14 02:17:41;;;;;;;3.10;1.70;;;;;;;4.02;100.00;99059.70;270248;1269;23780;-89
2023/01/14 02:24:20;;;;;;;4.50;1.90;;;;;;;3.99;100.00;99064.91;270106;1269;22415;-88
2023/01/14 02:30:42;;;;;;;3.80;1.70;;;;;;;3.93;100.00;99066.77;271016;1269;22517;-89
2023/01/14 02:36:50;;;;;;;2.30;1.70;;;;;;;3.87;100.00;99071.27;269974;1269;24205;-88
2023/01/14 02:49:26;;;;;;;4.50;2.30;;;;;;;3.76;100.00;99077.81;271861;1269;22330;-89
2023/01/14 02:55:34;;;;;;;4.30;2.20;;;;;;;3.72;100.00;99076.81;271715;1268;22224;-90
2023/01/14 03:02:05;;;;;;;5.00;2.10;;;;;;;3.63;100.00;99082.31;273688;1269;23259;-89
2023/01/14 03:08:16;;;;;;;4.10;1.80;;;;;;;3.56;100.00;99088.63;270600;1268;25309;-89
2023/01/14 03:14:35;;;;;;;5.70;2.00;;;;;;;3.48;100.00;99094.33;270580;1263;24203;-90
2023/01/14 03:20:40;;;;;;;3.60;2.30;;;;;;;3.35;100.00;99094.11;272012;1269;22421;-89
2023/01/14 03:26:45;;;;;;;3.60;2.30;;;;;;;3.23;100.00;99103.13;271973;1269;22546;-89
2023/01/14 03:32:53;;;;;;;3.90;1.90;;;;;;;3.14;100.00;99105.45;271994;1269;22335;-89
2023/01/14 03:39:00;;;;;;;5.80;2.90;;;;;;;3.12;100.00;99111.30;272125;1269;22324;-90
2023/01/14 03:45:10;;;;;;;5.00;2.70;;;;;;;3.13;100.00;99126.69;272146;1269;22451;-91
2023/01/14 03:51:32;;;;;;;5.20;2.60;;;;;;;3.14;100.00;99137.15;273627;1268;23682;-90
2023/01/14 03:57:50;;;;;;;4.40;2.30;;;;;;;3.15;100.00;99144.31;273698;1268;22338;-90
2023/01/14 04:03:53;;;;;;;5.40;2.80;;;;;;;3.17;100.00;99155.52;269970;1269;23872;-90
2023/01/14 04:09:55;;;;;;;4.50;2.40;;;;;;;3.23;100.00;99163.64;269363;1269;24000;-89
2023/01/14 04:15:57;;;;;;;4.70;2.80;;;;;;;3.27;100.00;99172.38;270090;1269;23794;-90
2023/01/14 04:21:59;;;;;;;4.80;3.10;;;;;;;3.29;100.00;99182.84;269940;1268;23654;-89
2023/01/14 04:28:01;;;;;;;4.30;2.60;;;;;;;3.34;100.00;99183.05;273482;1269;22585;-89
2023/01/14 04:34:03;;;;;;;8.80;3.20;;;;;;;3.39;100.00;99180.99;273580;1269;22299;-89
2023/01/14 04:40:05;;;;;;;6.70;2.90;;;;;;;3.47;100.00;99185.59;271068;1269;25297;-90
2023/01/14 04:46:07;;;;;;;5.80;2.00;;;;;;;3.56;100.00;99187.63;270450;1269;22568;-90
2023/01/14 04:52:09;;;;;;;6.10;2.40;;;;;;;3.68;100.00;99189.94;269820;1269;23763;-89
2023/01/14 04:58:13;;;;;;;4.70;2.20;;;;;;;3.73;100.00;99186.13;271752;1268;22322;-89
2023/01/14 05:04:16;;;;;;;4.60;2.40;;;;;;;3.80;100.00;99182.81;271937;1266;22562;-89
2023/01/14 05:10:17;;;;;;;3.80;2.60;;;;;;;3.85;100.00;99185.18;270509;1266;22545;-89
2023/01/14 05:16:20;;;;;;;5.50;2.10;;;;;;;3.86;100.00;99190.85;271960;1267;22409;-90
2023/01/14 05:22:21;;;;;;;6.70;2.80;;;;;;;3.88;100.00;99193.73;272245;1267;23666;-90
2023/01/14 05:28:23;;;;;;;5.90;3.20;;;;;;;3.91;100.00;99197.58;270039;1267;127654;-89
2023/01/14 05:34:25;;;;;;;6.10;3.80;;;;;;;3.90;100.00;99207.50;269832;1267;23880;-90
2023/01/14 05:40:27;;;;;;;5.50;3.00;;;;;;;3.82;100.00;99220.88;269745;1257;23479;-90
2023/01/14 05:46:29;;;;;;;8.50;4.40;;;;;;;3.77;100.00;99232.24;270018;1267;22214;-90
2023/01/14 05:52:31;;;;;;;7.00;4.20;;;;;;;3.79;100.00;99243.01;270155;1267;25291;-90
2023/01/14 05:58:33;;;;;;;7.80;4.60;;;;;;;3.83;100.00;99244.58;272705;1267;22400;-90
2023/01/14 06:10:55;;;;;;;11.40;4.90;;;;;;;3.91;100.00;99256.90;273826;1266;22218;-91
2023/01/14 06:16:57;;;;;;;9.10;5.10;;;;;;;3.95;100.00;99261.51;273549;1266;22530;-90
2023/01/14 06:22:59;;;;;;;8.40;4.90;;;;;;;3.99;100.00;99266.63;271947;1267;22563;-88
2023/01/14 06:29:06;;;;;;;8.50;4.90;;;;;;;4.00;100.00;99269.52;271939;1267;22560;-90
2023/01/14 06:35:09;;;;;;;9.30;4.70;;;;;;;3.98;100.00;99277.55;271507;1267;24237;-90
2023/01/14 06:41:11;;;;;;;7.20;4.40;;;;;;;3.97;100.00;99283.16;271246;1267;22411;-90
2023/01/14 06:47:13;;;;;;;9.80;5.10;;;;;;;3.98;100.00;99288.91;273837;1266;22237;-90
2023/01/14 06:53:15;;;;;;;10.10;5.50;;;;;;;4.01;100.00;99288.68;273127;1267;22322;-90
2023/01/14 06:59:18;;;;;;;9.50;6.00;;;;;;;4.08;100.00;99293.73;271320;1267;22584;-90
2023/01/14 07:05:20;;;;;;;10.60;5.20;;;;;;;4.12;100.00;99303.08;270814;1263;22563;-90
2023/01/14 07:11:21;;;;;;;10.50;6.60;;;;;;;4.15;100.00;99306.91;270458;1267;22554;-90
2023/01/14 07:17:23;;;;;;;12.30;6.30;;;;;;;4.19;100.00;99306.38;272710;1266;25192;-90
2023/01/14 07:23:26;;;;;;;13.80;8.10;;;;;;;4.27;100.00;99317.99;270070;1267;22551;-90
2023/01/14 07:29:28;;;;;;;19.60;14.40;;;;;;;4.38;100.00;99319.21;273833;1267;22337;-90
2023/01/14 07:35:30;;;;;;;19.00;15.10;;;;;;;4.52;100.00;99320.70;272335;1267;23396;-90
2023/01/14 07:41:32;;;;;;;15.10;10.10;;;;;;;4.64;100.00;99323.29;270403;1267;24219;-90
2023/01/14 07:47:34;;;;;;;15.20;7.50;;;;;;;4.78;100.00;99323.84;269737;1267;22558;-89
2023/01/14 07:53:37;;;;;;;11.80;6.30;;;;;;;4.93;100.00;99328.69;271816;1266;22332;-89
2023/01/14 07:59:39;;;;;;;10.90;7.10;;;;;;;5.17;100.00;99330.05;273742;1267;22339;-90
2023/01/14 08:05:41;;;;;;;11.50;7.40;;;;;;;5.75;100.00;99332.27;273707;1268;22160;-91
2023/01/14 08:11:44;;;;;;;14.40;7.80;;;;;;;6.33;100.00;99338.11;271766;1267;23363;-90
2023/01/14 08:17:46;;;;;;;14.30;7.60;;;;;;;6.45;100.00;99347.10;269792;1251;22544;-91
2023/01/14 08:23:48;;;;;;;13.80;6.20;;;;;;;6.40;100.00;99351.92;269463;1267;22593;-90
2023/01/14 08:29:50;;;;;;;14.00;7.40;;;;;;;6.36;100.00;99351.80;269546;1267;25290;-90
2023/01/14 08:35:52;;;;;;;9.70;6.30;;;;;;;6.36;100.00;99352.98;269644;1267;22562;-90
2023/01/14 08:41:53;;;;;;;7.50;4.60;;;;;;;6.39;100.00;99355.55;270300;1266;23115;-90
2023/01/14 08:47:56;;;;;;;8.80;4.80;;;;;;;6.43;100.00;99363.82;273593;1266;22348;-92
2023/01/14 08:54:01;;;;;;;8.40;4.90;;;;;;;6.47;100.00;99376.00;272323;1269;22225;-91
2023/01/14 09:00:05;;;;;;;10.60;5.30;;;;;;;6.50;100.00;99383.09;270347;1267;22207;-91
2023/01/14 09:06:11;;;;;;;9.30;4.60;;;;;;;6.60;100.00;99384.05;273917;1267;23063;-91
2023/01/14 09:18:35;;;;;;;8.70;5.10;;;;;;;6.87;100.00;99383.61;272883;1267;22713;-91
2023/01/14 09:24:37;;;;;;;8.60;5.00;;;;;;;7.13;100.00;99380.31;272111;1267;24399;-90
2023/01/14 09:30:39;;;;;;;11.50;5.60;;;;;;;7.44;100.00;99378.66;272449;1267;22217;-90
2023/01/14 09:36:41;;;;;;;10.10;5.50;;;;;;;7.70;100.00;99379.27;271399;1269;22569;-91
2023/01/14 09:42:48;;;;;;;7.60;4.20;;;;;;;7.98;100.00;99378.59;271789;1267;25438;-91
2023/01/14 09:48:50;;;;;;;;;;;;;;;8.16;100.00;99379.06;272891;1267;22497;-90
2023/01/14 09:55:07;;;;;;;11.90;4.30;;;;;;;8.36;100.00;99381.89;273680;1267;22177;-91
2023/01/14 10:01:30;;;;;;;10.70;4.00;;;;;;;8.57;99.91;99378.67;273641;1267;22255;-91
2023/01/14 10:07:33;;;;;;;11.00;4.30;;;;;;;8.58;99.59;99375.05;271431;1253;23512;-91
2023/01/14 10:13:49;;;;;;;9.80;4.40;;;;;;;8.93;100.00;99368.41;270467;1269;23080;-92
2023/01/14 10:19:51;;;;;;;9.40;5.20;;;;;;;9.03;99.33;99364.98;272259;1267;22407;-91
2023/01/14 10:25:55;;;;;;;11.30;5.30;;;;;;;9.07;99.41;99358.91;273890;1266;22357;-90
2023/01/14 10:31:59;;;;;;;7.80;4.40;;;;;;;9.58;99.48;99356.11;272653;1266;22976;-91
2023/01/14 10:38:02;;;;;;;11.00;4.90;;;;;;;9.90;97.12;99358.63;272840;1268;23318;-91
2023/01/14 10:44:04;;;;;;;14.30;5.10;;;;;;;9.68;96.05;99363.81;270921;1266;22332;-91
2023/01/14 10:50:24;;;;;;;11.90;3.90;;;;;;;9.36;95.85;99363.08;271110;1256;23890;-91
2023/01/14 10:56:27;;;;;;;14.60;4.70;;;;;;;9.17;95.74;99349.55;269997;1266;22541;-90
2023/01/14 11:02:37;;;;;;;14.40;3.90;;;;;;;9.03;95.46;99336.36;269776;1269;22200;-91
2023/01/14 11:08:46;;;;;;;8.20;2.90;;;;;;;8.96;95.22;99333.70;270173;1268;22325;-90
2023/01/14 11:14:48;;;;;;;8.70;2.70;;;;;;;8.94;94.91;99335.44;270024;1269;22426;-91
2023/01/14 11:21:15;;;;;;;10.50;3.20;;;;;;;8.91;94.07;99338.56;271950;1269;22534;-90
2023/01/14 11:27:19;;;;;;;8.30;3.10;;;;;;;8.90;93.99;99338.63;269870;1272;22591;-90
2023/01/14 11:33:23;;;;;;;8.80;3.70;;;;;;;8.93;93.45;99332.21;269946;1269;22538;-90
2023/01/14 11:39:25;;;;;;;9.00;3.10;;;;;;;8.94;93.52;99328.33;270250;1269;22211;-90
2023/01/14 11:45:27;;;;;;;9.90;3.00;;;;;;;8.92;93.34;99326.41;269575;1269;22762;-91
2023/01/14 11:51:29;;;;;;;9.60;3.80;;;;;;;8.75;92.79;99322.38;270524;1269;25433;-90
2023/01/14 11:57:31;;;;;;;15.60;5.30;;;;;;;8.53;92.32;99318.00;269607;1269;25300;-90
2023/01/14 12:03:35;;;;;;;14.40;5.20;;;;;;;8.24;92.38;99311.58;272049;1269;22554;-90
2023/01/14 12:09:51;;;;;;;14.10;5.10;;;;;;;8.01;92.80;99304.98;270759;1269;22337;-90
2023/01/14 12:22:34;;;;;;;10.00;4.50;;;;;;;7.91;93.83;99295.22;273220;1268;22192;-90
2023/01/14 12:28:39;;;;;;;10.00;4.50;;;;;;;7.93;93.47;99282.59;272294;1269;22594;-90
2023/01/14 12:34:48;;;;;;;11.70;4.70;;;;;;;7.99;93.47;99278.38;270194;1269;23827;-90
2023/01/14 12:47:12;;;;;;;15.50;4.30;;;;;;;7.92;92.65;99272.27;271053;1269;24404;-91
2023/01/14 12:53:23;;;;;;;10.00;3.90;;;;;;;7.90;92.91;99264.25;270235;1270;22526;-91
2023/01/14 12:59:36;;;;;;;13.60;4.20;;;;;;;7.92;93.00;99263.16;270319;1269;23105;-91
2023/01/14 13:05:41;;;;;;;10.20;3.80;;;;;;;7.86;92.72;99263.55;273694;1269;22978;-90
2023/01/14 13:11:44;;;;;;;12.70;4.10;;;;;;;7.89;92.77;99266.20;271596;1269;22543;-91
2023/01/14 13:17:55;;;;;;;10.70;4.50;;;;;;;7.96;93.03;99267.02;270102;1269;23357;-91
2023/01/14 13:24:00;;;;;;;9.70;3.90;;;;;;;8.03;92.77;99257.69;269963;1254;22559;-90
2023/01/14 13:30:17;;;;;;;8.60;3.70;;;;;;;8.12;92.09;99256.73;269790;1270;22596;-91
2023/01/14 13:36:20;;;;;;;8.60;4.10;;;;;;;8.20;91.62;99250.07;270779;1269;22566;-90
2023/01/14 13:42:27;;;;;;;7.90;4.10;;;;;;;8.17;91.11;99248.13;273439;1269;22347;-91
2023/01/14 13:48:35;;;;;;;9.10;4.00;;;;;;;8.06;90.73;99251.27;270610;1269;22563;-90
2023/01/14 13:54:37;;;;;;;7.90;3.60;;;;;;;7.89;90.69;99257.56;272048;1269;22359;-91
2023/01/14 14:00:40;;;;;;;10.90;4.50;;;;;;;7.74;90.66;99253.95;272530;1269;22368;-90
2023/01/14 14:06:44;;;;;;;9.30;4.00;;;;;;;7.56;90.63;99253.32;273492;1270;22322;-91
2023/01/14 14:19:10;;;;;;;13.60;4.90;;;;;;;7.27;90.31;99245.68;273509;1269;22303;-92
2023/01/14 14:25:17;;;;;;;11.30;5.00;;;;;;;7.15;90.16;99245.72;273643;1269;22242;-91
2023/01/14 14:31:27;;;;;;;14.20;5.10;;;;;;;7.05;89.94;99238.20;273627;1270;22122;-91
2023/01/14 14:37:33;;;;;;;9.40;5.20;;;;;;;6.94;89.57;99233.53;272588;1269;23110;-91
2023/01/14 14:43:36;;;;;;;14.40;5.40;;;;;;;6.88;89.30;99231.94;271862;1268;22652;-90
2023/01/14 14:49:37;;;;;;;11.20;5.50;;;;;;;6.76;89.24;99232.77;269613;1269;22543;-90
2023/01/14 14:55:49;;;;;;;15.10;6.30;;;;;;;6.65;88.99;99228.14;269518;1269;23392;-90
2023/01/14 15:01:51;;;;;;;12.30;6.30;;;;;;;6.46;88.79;99221.11;269859;1269;22549;-92
2023/01/14 15:07:55;;;;;;;11.50;5.50;;;;;;;6.23;88.72;99218.40;269408;1269;23793;-90
2023/01/14 15:13:56;;;;;;;13.50;5.50;;;;;;;6.02;88.58;99210.59;272103;1269;22203;-91
2023/01/14 15:19:59;;;;;;;14.90;7.50;;;;;;;5.91;88.75;99209.30;271825;1269;22449;-91
2023/01/14 15:26:00;;;;;;;24.00;10.20;;;;;;;5.84;88.68;99209.20;271787;1269;22570;-91
2023/01/14 15:32:26;;;;;;;24.40;10.90;;;;;;;5.73;88.73;99209.89;270360;1269;23322;-91
2023/01/14 15:38:30;;;;;;;37.80;15.90;;;;;;;5.49;88.81;99207.59;273325;1269;22463;-91
2023/01/14 15:44:36;;;;;;;26.10;13.40;;;;;;;5.09;88.53;99205.18;273495;1269;22337;-90
2023/01/14 15:50:40;;;;;;;33.20;16.30;;;;;;;4.69;88.93;99210.45;272331;1268;22334;-90
2023/01/14 15:56:43;;;;;;;37.80;15.20;;;;;;;4.37;89.37;99211.54;269556;1269;22527;-90
2023/01/14 16:02:46;;;;;;;37.80;19.70;;;;;;;4.24;89.89;99206.23;270243;1269;22771;-91
2023/01/14 16:08:49;;;;;;;31.00;14.20;;;;;;;4.06;89.99;99213.11;269733;1269;22571;-90
2023/01/14 16:14:51;;;;;;;40.40;17.90;;;;;;;3.83;89.92;99214.73;269503;1269;23204;-92
2023/01/14 16:20:53;;;;;;;26.80;13.80;;;;;;;3.56;90.19;99214.92;273243;1269;23100;-91
2023/01/14 16:26:55;;;;;;;32.40;17.00;;;;;;;3.37;90.43;99208.61;273425;1269;22371;-91
2023/01/14 16:32:57;;;;;;;36.40;17.50;;;;;;;3.13;90.40;99200.23;273488;1269;22204;-91
2023/01/14 16:38:59;;;;;;;43.00;22.90;;;;;;;2.96;90.64;99194.23;273000;1268;23220;-91
2023/01/14 16:45:02;;;;;;;46.60;21.80;;;;;;;2.83;90.93;99186.77;271858;1267;22358;-90
2023/01/14 16:51:16;;;;;;;33.20;17.80;;;;;;;2.66;90.88;99182.84;273487;1268;22337;-90
2023/01/14 16:57:20;;;;;;;26.60;13.40;;;;;;;2.38;90.84;99181.17;273381;1269;22510;-90
2023/01/14 17:03:23;;;;;;;26.70;13.80;;;;;;;2.09;91.24;99174.69;272369;1268;22614;-90
2023/01/14 17:09:25;;;;;;;64.00;24.10;;;;;;;1.87;91.55;99162.96;271920;1269;22177;-90
2023/01/14 17:15:26;;;;;;;106.90;37.20;;;;;;;1.69;91.84;99151.98;273347;1268;22410;-91
2023/01/14 17:21:28;;;;;;;79.90;31.60;;;;;;;1.50;91.90;99140.98;265874;1266;10001438;-90
2023/01/14 17:27:30;;;;;;;65.90;28.70;;;;;;;1.36;92.40;99122.52;273363;1269;109117;-91
2023/01/14 17:33:33;;;;;;;60.30;25.30;;;;;;;1.32;92.85;99116.66;272383;1269;23142;-91
2023/01/14 17:39:35;;;;;;;81.30;34.30;;;;;;;1.28;93.01;99112.99;272294;1269;25218;-91
2023/01/14 17:45:37;;;;;;;73.90;32.50;;;;;;;1.19;93.10;99100.15;271257;1269;22669;-90
2023/01/14 17:51:39;;;;;;;70.70;33.70;;;;;;;1.12;93.48;99092.66;270868;1269;24304;-90
2023/01/14 17:57:41;;;;;;;62.40;30.40;;;;;;;1.10;93.68;99089.98;270921;1267;22324;-91
2023/01/14 18:03:50;;;;;;;53.10;25.40;;;;;;;1.02;93.68;99089.53;273543;1269;22910;-91
2023/01/14 18:09:52;;;;;;;67.80;33.10;;;;;;;0.93;94.02;99090.69;273532;1269;22409;-90
2023/01/14 18:15:54;;;;;;;55.20;26.70;;;;;;;0.85;94.27;99085.95;273512;1266;22760;-90
2023/01/14 18:21:56;;;;;;;64.60;30.60;;;;;;;0.75;94.47;99085.34;272873;1269;22318;-91
2023/01/14 18:27:58;;;;;;;51.90;26.90;;;;;;;0.63;94.87;99088.39;273428;1269;22318;-91
2023/01/14 18:34:06;;;;;;;55.30;26.20;;;;;;;0.53;94.66;99085.80;273414;1268;22991;-90
2023/01/14 18:40:09;;;;;;;73.40;33.00;;;;;;;0.38;95.05;99084.71;273590;1269;22249;-90
2023/01/14 18:46:16;;;;;;;80.00;38.80;;;;;;;0.35;95.63;99076.06;273553;1266;22973;-91
2023/01/14 18:52:18;;;;;;;91.10;43.90;;;;;;;0.32;95.89;99068.64;273526;1268;23182;-90
2023/01/14 18:58:20;;;;;;;94.60;46.90;;;;;;;0.22;95.69;99049.61;273631;1268;23034;-90
2023/01/14 19:04:21;;;;;;;94.40;49.40;;;;;;;0.11;95.84;99035.02;273615;1269;22947;-90
2023/01/14 19:10:23;;;;;;;125.80;58.90;;;;;;;0.02;96.04;99026.04;273607;1269;22235;-90
2023/01/14 19:16:25;;;;;;;135.30;64.80;;;;;;;-0.06;96.21;99009.95;273395;1268;22306;-91
2023/01/14 19:22:27;;;;;;;121.30;58.70;;;;;;;-0.14;96.44;98995.98;273536;1269;23953;-90
2023/01/14 19:28:29;;;;;;;109.80;56.10;;;;;;;-0.21;96.67;98987.33;273536;1269;22440;-91
2023/01/14 19:34:32;;;;;;;125.60;58.60;;;;;;;-0.28;96.87;98988.58;273498;1269;22432;-91
2023/01/14 19:40:35;;;;;;;145.70;74.40;;;;;;;-0.39;96.67;98970.48;273504;1267;23690;-90
2023/01/14 19:46:40;;;;;;;163.00;84.10;;;;;;;-0.47;97.02;98957.39;273475;1266;22193;-91
2023/01/14 19:52:42;;;;;;;159.30;81.10;;;;;;;-0.52;97.41;98946.98;273368;1268;22225;-91
2023/01/14 19:58:44;;;;;;;141.50;72.90;;;;;;;-0.54;97.61;98938.77;273670;1269;22415;-90
2023/01/14 20:04:46;;;;;;;142.70;72.60;;;;;;;-0.55;97.95;98928.90;273638;1268;22329;-90
2023/01/14 20:10:48;;;;;;;150.70;74.70;;;;;;;-0.59;97.77;98918.73;273594;1269;22357;-89
2023/01/14 20:16:50;;;;;;;138.60;69.90;;;;;;;-0.72;97.78;98912.46;273597;1269;22342;-89
2023/01/14 20:22:52;;;;;;;150.90;72.10;;;;;;;-0.75;98.42;98899.85;273607;1269;22278;-90
2023/01/14 20:28:55;;;;;;;139.90;69.10;;;;;;;-0.75;98.50;98890.87;273667;1269;22503;-89
2023/01/14 20:34:56;;;;;;;120.60;60.40;;;;;;;-0.77;98.61;98884.73;273598;1268;22374;-89
2023/01/14 20:40:59;;;;;;;127.10;61.20;;;;;;;-0.80;98.82;98878.30;273591;1269;22229;-89
2023/01/14 20:47:01;;;;;;;132.70;64.40;;;;;;;-0.86;98.58;98878.11;273526;1268;22397;-89
2023/01/14 20:53:03;;;;;;;135.70;65.40;;;;;;;-0.96;98.66;98869.20;273637;1268;22345;-90
2023/01/14 21:05:09;;;;;;;148.50;63.20;;;;;;;-1.12;99.13;98861.39;273774;1269;22435;-89
2023/01/14 21:11:17;;;;;;;125.50;57.80;;;;;;;-1.16;99.28;98857.30;273764;1268;22389;-89
2023/01/14 21:23:40;;;;;;;126.80;58.80;;;;;;;-1.24;99.50;98855.05;270934;1268;22353;-89
2023/01/14 21:29:42;;;;;;;94.40;46.00;;;;;;;-1.28;99.90;98854.91;271020;1268;22555;-89
2023/01/14 21:35:45;;;;;;;140.50;66.70;;;;;;;-1.32;99.68;98853.35;272478;1260;22389;-89
2023/01/14 21:48:09;;;;;;;114.50;56.10;;;;;;;-1.29;99.93;98845.84;270786;1263;22562;-89
2023/01/14 21:54:11;;;;;;;127.80;54.80;;;;;;;-1.25;100.00;98836.06;269946;1269;24292;-88
2023/01/14 22:00:13;;;;;;;116.50;53.80;;;;;;;-1.33;100.00;98841.11;269971;1259;23865;-87
2023/01/14 22:06:16;;;;;;;122.60;57.10;;;;;;;-1.40;100.00;98839.29;272150;1269;22350;-87
2023/01/14 22:12:18;;;;;;;132.60;61.40;;;;;;;-1.39;100.00;98825.58;273474;1269;22458;-89
2023/01/14 22:18:20;;;;;;;127.90;57.40;;;;;;;-1.38;100.00;98812.60;272822;1266;22571;-88
2023/01/14 22:24:21;;;;;;;109.00;51.00;;;;;;;-1.38;100.00;98805.16;272671;1269;22400;-89
2023/01/14 22:30:23;;;;;;;117.90;53.40;;;;;;;-1.32;100.00;98797.11;273655;1269;22214;-88
2023/01/14 22:36:25;;;;;;;132.20;56.20;;;;;;;-1.30;100.00;98787.62;273322;1269;22206;-88
2023/01/14 22:42:28;;;;;;;114.10;54.40;;;;;;;-1.35;100.00;98777.52;273727;1269;22442;-88
2023/01/14 22:48:34;;;;;;;109.80;53.20;;;;;;;-1.34;100.00;98762.79;273526;1269;22402;-89
2023/01/14 22:54:36;;;;;;;;;;;;;;;-1.35;100.00;98758.52;273767;1264;22505;-88
2023/01/14 23:00:38;;;;;;;117.20;54.80;;;;;;;-1.38;100.00;98754.23;269757;1269;22548;-88
2023/01/14 23:06:40;;;;;;;115.90;51.80;;;;;;;-1.39;100.00;98736.66;269625;1269;22588;-88
2023/01/14 23:12:42;;;;;;;106.90;51.50;;;;;;;-1.39;100.00;98723.87;269913;1269;23770;-88
2023/01/14 23:18:53;;;;;;;76.70;37.20;;;;;;;-1.45;100.00;98699.39;270169;1269;22702;-89
2023/01/14 23:24:58;;;;;;;57.80;29.80;;;;;;;-1.48;100.00;98673.74;273655;1269;22381;-89
2023/01/14 23:31:03;;;;;;;36.30;18.30;;;;;;;-1.47;100.00;98654.77;273613;1268;22320;-88
2023/01/14 23:37:05;;;;;;;44.60;23.70;;;;;;;-1.41;100.00;98633.33;272288;1269;22206;-89
2023/01/14 23:43:06;;;;;;;42.90;20.10;;;;;;;-1.29;100.00;98622.96;270170;1269;22680;-90
2023/01/14 23:49:09;;;;;;;38.30;19.80;;;;;;;-1.17;100.00;98614.77;272863;1268;22399;-89
2023/01/14 23:55:11;;;;;;;44.10;22.60;;;;;;;-1.13;100.00;98608.59;273454;1269;22423;-88
